Enright, Arkansas
Current Conditions -  °F | °C
As of 7:16 AM on Friday 19 Dec 2014 (Local Time) from KSRC Reporting Station
Haze Haze  
Wind Chill: 34°   Ceiling: 900
Heat Index: 39°   Visibility: 5mi
Dew Point: 37°   Wind: 7mph
Humidity: 93%   Direction: 30°NNE
Pressure: 30.28"   Gusts: NA
Location:  35.2662°N, 91.8491°W
Report Text: KSRC 191316Z AUTO 03006KT 5SM BR BKN009 BKN025 OVC050 04/03 A3028 RMK AO2 CIG 007V012 TSNO
Loading
Personal Weather Stations






























Interactive Weather Map New forecast layout! Learn more

10-Day Weather Forecast

Advertisements
Track Severe Weather on mobile